Estación Meteorológica Peña el Pijo (Robertgarden) [ 10/16/18 04:24:56 CEST ]

Fecha Hora Presion(HPa) Temp (°C) Humedad % Rocio (°C) Viento ( m/s) Direccion Lluvia 1Hora(mm) Lluvia 24H(mm) LLuvia Total(mm)
2018-Aug-09 01:01:50 1010.200 16.2 82 13.1       1.03 275.05
2018-Aug-09 02:01:46 1009.900 16.1 83 13.2       1.03 275.05
2018-Aug-09 03:01:30 1009.300 15.9 84 13.2       1.03 275.05
2018-Aug-09 04:01:25 1008.800 15.5 85 13.0       1.03 275.05
2018-Aug-09 05:01:21 1008.600 14.9 86 12.6       1.03 275.05
2018-Aug-09 06:01:23 1008.800 14.8 86 12.5       1.03 275.05
2018-Aug-09 07:01:38 1009.100 14.1 87 12.0       1.03 275.05
2018-Aug-09 08:01:52 1009.200 14.3 88 12.3       1.03 275.05
2018-Aug-09 09:01:47 1009.600 17.4 89 15.6       1.03 275.05
2018-Aug-09 10:01:46 1009.700 22.3 73 17.2       1.03 275.05
2018-Aug-09 11:01:46 1009.700 27.6 54 17.4       1.03 275.05
2018-Aug-09 12:01:47 1010.000 29.9 41 15.3 0.3 S   1.03 275.05
2018-Aug-09 13:01:47 1009.900 31.4 36 14.4 1.2 SSW   1.03 275.05
2018-Aug-09 14:01:44 1009.900 30.6 35 13.3       1.03 275.05
2018-Aug-09 15:01:41 1009.700 33.2 30 13.4       1.03 275.05
2018-Aug-09 16:01:39 1009.400 34.3 26 11.8       0.51 275.05
2018-Aug-09 17:01:46 1009.200 33.9 24 10.3       0.51 275.05
2018-Aug-09 18:01:36 1009.100 33.3 25 10.4       0.51 275.05
2018-Aug-09 19:01:49 1009.600 31.2 26 9.2         275.05
2018-Aug-09 20:01:50 1009.800 29.2 27 8.1         275.05
2018-Aug-09 21:01:38 1010.600 25.1 31 6.8         275.05
2018-Aug-09 22:01:43 1011.400 21.3 40 7.2         275.05
2018-Aug-09 23:01:43 1012.300 18.6 46 6.7         275.05

Temperatura Máxima:34°    Temperatura Mínima:14°
Presión Máxima:1012.300 Hpa    Presión Mínima:1008.600 Hpa


Volver